createdAt,value
2023-05-02T00:02:01.643Z,100563.09
2023-05-02T00:04:04.942Z,100557.34
2023-05-02T00:06:07.920Z,100564.53
2023-05-02T00:08:10.844Z,100561.09
2023-05-02T00:10:13.899Z,100564.06
2023-05-02T00:12:18.398Z,100571.00
2023-05-02T00:14:21.296Z,100571.75
2023-05-02T00:16:24.777Z,100568.38
2023-05-02T00:18:27.698Z,100566.09
2023-05-02T00:20:30.547Z,100564.06
2023-05-02T00:22:33.429Z,100568.25
2023-05-02T00:24:36.458Z,100568.19
2023-05-02T00:26:39.366Z,100579.63
2023-05-02T00:28:44.010Z,100581.28
2023-05-02T00:30:47.276Z,100582.28
2023-05-02T00:32:50.741Z,100584.13
2023-05-02T00:34:53.667Z,100591.75
2023-05-02T00:36:56.522Z,100588.38
2023-05-02T00:38:59.347Z,100587.81
2023-05-02T00:41:02.270Z,100595.06
2023-05-02T00:43:05.104Z,100604.66
2023-05-02T00:45:10.329Z,100603.78
2023-05-02T00:47:13.322Z,100600.13
2023-05-02T00:49:16.205Z,100603.00
2023-05-02T00:51:19.781Z,100600.19
2023-05-02T00:53:23.001Z,100602.84
2023-05-02T00:55:25.964Z,100601.06
2023-05-02T00:57:28.826Z,100596.63
2023-05-02T00:59:31.731Z,100601.94
2023-05-02T01:01:41.954Z,100609.56
2023-05-02T01:03:53.462Z,100597.75
2023-05-02T01:06:02.744Z,100601.47
2023-05-02T01:08:12.355Z,100607.72
2023-05-02T01:10:22.830Z,100603.34
2023-05-02T01:12:29.933Z,100604.00
2023-05-02T01:14:36.784Z,100604.47
2023-05-02T01:16:43.040Z,100602.28
2023-05-02T01:18:47.295Z,100603.00
2023-05-02T01:20:54.610Z,100601.69
2023-05-02T01:23:01.721Z,100604.63
2023-05-02T01:25:13.140Z,100609.72
2023-05-02T01:27:26.086Z,100609.97
2023-05-02T01:29:30.922Z,100612.91
2023-05-02T01:31:37.306Z,100609.34
2023-05-02T01:33:40.902Z,100616.22
2023-05-02T01:35:44.969Z,100615.31
2023-05-02T01:37:49.510Z,100621.50
2023-05-02T01:39:53.526Z,100616.94
2023-05-02T01:41:58.093Z,100633.00
2023-05-02T01:44:03.520Z,100621.81
2023-05-02T01:46:08.223Z,100623.22
2023-05-02T01:48:12.120Z,100621.81
2023-05-02T01:50:22.879Z,100619.63
2023-05-02T01:52:27.291Z,100628.66
2023-05-02T01:54:30.584Z,100630.75
2023-05-02T01:56:36.123Z,100639.84
2023-05-02T01:58:40.679Z,100637.59
2023-05-02T02:00:45.219Z,100641.03
2023-05-02T02:02:50.094Z,100644.84
2023-05-02T02:04:54.588Z,100649.28
2023-05-02T02:06:59.874Z,100649.19
2023-05-02T02:09:03.711Z,100651.66
2023-05-02T02:11:14.615Z,100657.09
2023-05-02T02:13:19.417Z,100656.03
2023-05-02T02:15:27.011Z,100662.47
2023-05-02T02:17:35.260Z,100662.19
2023-05-02T02:19:41.116Z,100667.84
2023-05-02T02:21:44.757Z,100671.22
2023-05-02T02:23:49.099Z,100669.13
2023-05-02T02:25:53.597Z,100673.28
2023-05-02T02:27:56.589Z,100675.53
2023-05-02T02:29:59.935Z,100675.72
2023-05-02T02:32:03.291Z,100684.19
2023-05-02T02:34:06.384Z,100684.41
2023-05-02T02:36:14.182Z,100680.59
2023-05-02T02:38:22.298Z,100689.25
2023-05-02T02:40:30.818Z,100686.97
2023-05-02T02:42:40.687Z,100686.97
2023-05-02T02:44:50.771Z,100691.06
2023-05-02T02:47:02.651Z,100688.81
2023-05-02T02:49:16.825Z,100694.13
2023-05-02T02:51:28.048Z,100700.00
2023-05-02T02:53:35.602Z,100691.97
2023-05-02T02:55:41.619Z,100696.03
2023-05-02T02:57:49.240Z,100694.91
2023-05-02T02:59:59.934Z,100701.00
2023-05-02T03:02:08.297Z,100693.03
2023-05-02T03:04:12.786Z,100697.06
2023-05-02T03:06:16.045Z,100709.19
2023-05-02T03:08:20.343Z,100709.88
2023-05-02T03:10:23.836Z,100706.94
2023-05-02T03:12:27.195Z,100710.53
2023-05-02T03:14:30.229Z,100710.31
2023-05-02T03:16:35.639Z,100716.09
2023-05-02T03:18:41.502Z,100712.75
2023-05-02T03:20:44.606Z,100713.13
2023-05-02T03:22:47.857Z,100722.50
2023-05-02T03:24:52.193Z,100726.97
2023-05-02T03:26:56.325Z,100724.66
2023-05-02T03:29:03.201Z,100726.69
2023-05-02T03:31:11.587Z,100725.72
2023-05-02T03:33:15.997Z,100724.91
2023-05-02T03:35:21.144Z,100723.97
2023-05-02T03:37:26.615Z,100732.78
2023-05-02T03:39:30.384Z,100729.00
2023-05-02T03:41:35.101Z,100730.47
2023-05-02T03:43:42.892Z,100735.00
2023-05-02T03:45:48.152Z,100737.25
2023-05-02T03:47:52.519Z,100744.53
2023-05-02T03:49:55.732Z,100753.00
2023-05-02T03:51:59.153Z,100740.69
2023-05-02T03:54:07.496Z,100742.88
2023-05-02T03:56:11.053Z,100741.34
2023-05-02T03:58:26.890Z,100744.06
2023-05-02T04:00:30.112Z,100747.44
2023-05-02T04:02:38.882Z,100749.75
2023-05-02T04:04:45.530Z,100758.50
2023-05-02T04:06:51.368Z,100752.47
2023-05-02T04:08:54.484Z,100754.72
2023-05-02T04:10:57.551Z,100756.06
2023-05-02T04:13:05.457Z,100749.00
2023-05-02T04:15:13.069Z,100758.03
2023-05-02T04:17:16.568Z,100757.69
2023-05-02T04:19:22.792Z,100762.41
2023-05-02T04:21:25.828Z,100754.19
2023-05-02T04:23:29.125Z,100762.00
2023-05-02T04:25:35.814Z,100768.94
2023-05-02T04:27:39.941Z,100773.41
2023-05-02T04:29:49.978Z,100770.75
2023-05-02T04:31:55.515Z,100773.34
2023-05-02T04:34:01.806Z,100774.97
2023-05-02T04:36:11.674Z,100778.41
2023-05-02T04:38:18.226Z,100780.16
2023-05-02T04:40:22.488Z,100788.50
2023-05-02T04:42:31.129Z,100790.75
2023-05-02T04:44:55.653Z,100796.06
2023-05-02T04:47:00.100Z,100791.88
2023-05-02T04:49:05.133Z,100801.47
2023-05-02T04:51:09.519Z,100800.75
2023-05-02T04:53:12.420Z,100802.06
2023-05-02T04:55:15.551Z,100803.75
2023-05-02T04:57:19.958Z,100808.91
2023-05-02T04:59:28.631Z,100812.34
2023-05-02T05:01:31.622Z,100813.41
2023-05-02T05:03:36.579Z,100820.81
2023-05-02T05:05:39.807Z,100822.47
2023-05-02T05:07:45.624Z,100824.28
2023-05-02T05:09:51.171Z,100821.41
2023-05-02T05:12:05.309Z,100835.56
2023-05-02T05:14:10.544Z,100843.13
2023-05-02T05:16:15.390Z,100841.41
2023-05-02T05:18:19.133Z,100844.81
2023-05-02T05:20:23.377Z,100850.84
2023-05-02T05:22:29.549Z,100854.59
2023-05-02T05:24:32.795Z,100855.13
2023-05-02T05:26:36.500Z,100857.47
2023-05-02T05:28:40.332Z,100859.47
2023-05-02T05:30:43.310Z,100870.72
2023-05-02T05:32:49.710Z,100869.56
2023-05-02T05:34:53.470Z,100874.53
2023-05-02T05:37:00.454Z,100876.03
2023-05-02T05:39:03.506Z,100880.53
2023-05-02T05:41:09.118Z,100884.91
2023-05-02T05:43:14.239Z,100887.28
2023-05-02T05:45:19.833Z,100891.00
2023-05-02T05:47:23.509Z,100894.81
2023-05-02T05:49:28.177Z,100902.16
2023-05-02T05:51:31.781Z,100896.91
2023-05-02T05:53:37.350Z,100909.34
2023-05-02T05:55:42.564Z,100909.19
2023-05-02T05:57:45.984Z,100906.69
2023-05-02T05:59:49.204Z,100910.84
2023-05-02T06:01:54.198Z,100913.59
2023-05-02T06:03:59.081Z,100914.75
2023-05-02T06:06:02.491Z,100921.25
2023-05-02T06:08:06.284Z,100925.22
2023-05-02T06:10:12.650Z,100925.31
2023-05-02T06:12:18.491Z,100923.53
2023-05-02T06:14:22.289Z,100924.00
2023-05-02T06:16:26.625Z,100935.13
2023-05-02T06:18:29.656Z,100924.66
2023-05-02T06:20:32.842Z,100918.78
2023-05-02T06:22:35.738Z,100934.25
2023-05-02T06:24:39.041Z,100926.06
2023-05-02T06:26:43.553Z,100930.16
2023-05-02T06:28:47.229Z,100933.78
2023-05-02T06:30:58.577Z,100916.25
2023-05-02T06:33:01.573Z,100927.69
2023-05-02T06:35:04.783Z,100926.84
2023-05-02T06:37:08.325Z,100935.13
2023-05-02T06:39:11.680Z,100945.00
2023-05-02T06:41:17.815Z,100949.13
2023-05-02T06:43:24.768Z,100944.84
2023-05-02T06:45:28.675Z,100942.34
2023-05-02T06:47:31.601Z,100956.06
2023-05-02T06:49:34.665Z,100957.44
2023-05-02T06:51:37.840Z,100959.66
2023-05-02T06:53:41.670Z,100966.88
2023-05-02T06:55:45.545Z,100975.13
2023-05-02T06:57:49.692Z,100972.25
2023-05-02T06:59:53.927Z,100971.94
2023-05-02T07:01:56.867Z,100965.31
2023-05-02T07:04:04.271Z,100969.66
2023-05-02T07:06:07.299Z,100974.72
2023-05-02T07:08:10.526Z,100980.28
2023-05-02T07:10:13.501Z,100990.22
2023-05-02T07:12:16.565Z,100989.66
2023-05-02T07:14:19.566Z,100987.53
2023-05-02T07:16:23.861Z,100992.81
2023-05-02T07:18:27.023Z,101005.25
2023-05-02T07:20:30.196Z,101008.94
2023-05-02T07:22:33.107Z,101013.88
2023-05-02T07:24:36.484Z,101010.03
2023-05-02T07:26:39.407Z,101016.75
2023-05-02T07:28:42.341Z,101011.75
2023-05-02T07:30:45.234Z,101009.75
2023-05-02T07:32:49.671Z,101017.66
2023-05-02T07:34:54.225Z,101020.31
2023-05-02T07:36:57.449Z,101020.16
2023-05-02T07:39:00.348Z,101020.38
2023-05-02T07:41:05.670Z,101027.16
2023-05-02T07:43:11.022Z,101019.25
2023-05-02T07:45:14.423Z,101018.53
2023-05-02T07:47:17.296Z,101028.06
2023-05-02T07:49:21.519Z,101033.09
2023-05-02T07:51:26.263Z,101038.50
2023-05-02T07:53:29.113Z,101031.88
2023-05-02T07:55:33.334Z,101036.22
2023-05-02T07:57:36.538Z,101042.50
2023-05-02T07:59:39.950Z,101044.75
2023-05-02T08:01:43.321Z,101047.44
2023-05-02T08:03:47.219Z,101073.63
2023-05-02T08:05:51.655Z,101081.84
2023-05-02T08:07:54.492Z,101082.03
2023-05-02T08:09:57.347Z,101086.50
2023-05-02T08:12:02.752Z,101095.03
2023-05-02T08:14:05.848Z,101104.00
2023-05-02T08:16:09.072Z,101105.28
2023-05-02T08:18:12.101Z,101112.78
2023-05-02T08:20:15.012Z,101124.25
2023-05-02T08:22:19.285Z,101132.41
2023-05-02T08:24:24.314Z,101139.88
2023-05-02T08:26:28.952Z,101131.09
2023-05-02T08:28:31.969Z,101137.06
2023-05-02T08:30:34.893Z,101146.44
2023-05-02T08:32:38.106Z,101143.84
2023-05-02T08:34:41.021Z,101151.50
2023-05-02T08:36:44.410Z,101149.19
2023-05-02T08:38:49.629Z,101159.50
2023-05-02T08:40:52.550Z,101165.38
2023-05-02T08:42:55.982Z,101166.88
2023-05-02T08:44:59.565Z,101171.31
2023-05-02T08:47:03.465Z,101166.59
2023-05-02T08:49:06.801Z,101171.31
2023-05-02T08:51:12.777Z,101169.19
2023-05-02T08:53:15.718Z,101169.84
2023-05-02T08:55:27.810Z,101173.69
2023-05-02T08:57:31.539Z,101183.38
2023-05-02T08:59:34.479Z,101177.94
2023-05-02T09:01:38.738Z,101186.06
2023-05-02T09:03:41.987Z,101189.72
2023-05-02T09:05:44.869Z,101187.41
2023-05-02T09:07:48.542Z,101183.72
2023-05-02T09:09:51.390Z,101184.72
2023-05-02T09:11:55.644Z,101192.31
2023-05-02T09:14:03.860Z,101196.59
2023-05-02T09:16:08.613Z,101198.31
2023-05-02T09:18:21.002Z,101205.38
2023-05-02T09:20:24.033Z,101208.72
2023-05-02T09:22:26.995Z,101209.78
2023-05-02T09:24:31.107Z,101214.53
2023-05-02T09:26:34.088Z,101213.38
2023-05-02T09:28:43.498Z,101213.13
2023-05-02T09:30:47.023Z,101216.38
2023-05-02T09:32:52.081Z,101227.56
2023-05-02T09:35:08.345Z,101218.72
2023-05-02T09:37:11.472Z,101225.81
2023-05-02T09:39:16.531Z,101230.09
2023-05-02T09:41:21.055Z,101232.75
2023-05-02T09:43:23.981Z,101232.47
2023-05-02T09:45:28.214Z,101231.78
2023-05-02T09:47:31.239Z,101232.06
2023-05-02T09:49:41.203Z,101235.09
2023-05-02T09:51:44.179Z,101239.47
2023-05-02T09:53:47.557Z,101241.09
2023-05-02T09:55:50.441Z,101238.13
2023-05-02T09:57:53.407Z,101241.44
2023-05-02T09:59:57.232Z,101243.41
2023-05-02T10:02:03.372Z,101242.38
2023-05-02T10:04:06.557Z,101251.28
2023-05-02T10:06:10.789Z,101247.75
2023-05-02T10:08:14.898Z,101257.09
2023-05-02T10:10:18.752Z,101255.31
2023-05-02T10:12:24.609Z,101255.84
2023-05-02T10:14:29.467Z,101253.41
2023-05-02T10:16:34.245Z,101276.06
2023-05-02T10:18:44.447Z,101267.66
2023-05-02T10:20:55.394Z,101270.44
2023-05-02T10:23:01.286Z,101265.66
2023-05-02T10:25:07.248Z,101271.31
2023-05-02T10:27:11.099Z,101273.56
2023-05-02T10:29:14.119Z,101271.72
2023-05-02T10:31:18.234Z,101267.84
2023-05-02T10:33:22.956Z,101264.31
2023-05-02T10:35:27.524Z,101264.50
2023-05-02T10:37:30.988Z,101273.19
2023-05-02T10:39:34.025Z,101262.66
2023-05-02T10:41:37.622Z,101277.38
2023-05-02T10:43:40.698Z,101275.78
2023-05-02T10:45:43.880Z,101274.91
2023-05-02T10:47:47.010Z,101268.47
2023-05-02T10:49:53.263Z,101277.72
2023-05-02T10:51:57.505Z,101271.31
2023-05-02T10:54:21.485Z,101272.31
2023-05-02T10:56:28.505Z,101277.31
2023-05-02T10:58:32.712Z,101278.34
2023-05-02T11:00:36.218Z,101280.22
2023-05-02T11:02:49.120Z,101283.47
2023-05-02T11:05:05.404Z,101284.22
2023-05-02T11:07:21.737Z,101280.50
2023-05-02T11:09:34.679Z,101281.53
2023-05-02T11:11:41.537Z,101282.81
2023-05-02T11:13:50.831Z,101275.63
2023-05-02T11:16:00.236Z,101284.38
2023-05-02T11:18:04.271Z,101288.47
2023-05-02T11:20:28.265Z,101285.94
2023-05-02T11:22:35.755Z,101285.31
2023-05-02T11:24:39.088Z,101287.97
2023-05-02T11:26:41.970Z,101289.16
2023-05-02T11:28:48.379Z,101287.09
2023-05-02T11:34:26.755Z,101286.94
2023-05-02T11:36:30.782Z,101300.53
2023-05-02T11:38:39.400Z,101291.53
2023-05-02T11:40:52.066Z,101296.06
2023-05-02T11:42:55.419Z,101296.91
2023-05-02T11:44:59.413Z,101294.31
2023-05-02T11:47:03.836Z,101288.38
2023-05-02T11:49:09.317Z,101288.78
2023-05-02T11:51:13.237Z,101295.69
2023-05-02T11:53:17.563Z,101289.25
2023-05-02T11:55:21.825Z,101291.66
2023-05-02T11:57:25.382Z,101288.09
2023-05-02T11:59:28.278Z,101283.38
2023-05-02T12:01:31.758Z,101278.06
2023-05-02T12:03:35.481Z,101280.78
2023-05-02T12:05:38.485Z,101284.94
2023-05-02T12:07:43.011Z,101287.81
2023-05-02T12:09:52.427Z,101288.16
2023-05-02T12:11:57.278Z,101293.78
2023-05-02T12:14:00.550Z,101296.06
2023-05-02T12:16:04.457Z,101295.06
2023-05-02T12:18:07.954Z,101294.34
2023-05-02T12:20:13.329Z,101294.44
2023-05-02T12:22:16.487Z,101298.47
2023-05-02T12:24:19.471Z,101305.19
2023-05-02T12:26:25.373Z,101298.75
2023-05-02T12:28:29.895Z,101295.66
2023-05-02T12:30:34.033Z,101301.69
2023-05-02T12:32:37.789Z,101299.47
2023-05-02T12:34:41.950Z,101302.31
2023-05-02T12:36:45.571Z,101303.13
2023-05-02T12:38:53.322Z,101303.88
2023-05-02T12:40:58.517Z,101306.94
2023-05-02T12:43:04.132Z,101315.09
2023-05-02T12:45:18.257Z,101312.94
2023-05-02T12:47:22.694Z,101309.38
2023-05-02T12:49:26.208Z,101313.50
2023-05-02T12:51:31.674Z,101313.50
2023-05-02T12:53:42.113Z,101310.00
2023-05-02T12:55:45.665Z,101308.31
2023-05-02T12:57:49.033Z,101309.56
2023-05-02T12:59:53.304Z,101310.66
2023-05-02T13:01:57.693Z,101313.22
2023-05-02T13:04:00.811Z,101324.06
2023-05-02T13:06:03.911Z,101318.69
2023-05-02T13:08:07.367Z,101325.03
2023-05-02T13:10:11.213Z,101328.28
2023-05-02T13:12:14.153Z,101322.88
2023-05-02T13:14:17.003Z,101318.13
2023-05-02T13:16:20.193Z,101315.09
2023-05-02T13:18:24.591Z,101320.72
2023-05-02T13:20:27.449Z,101325.19
2023-05-02T13:22:30.392Z,101324.69
2023-05-02T13:24:33.465Z,101327.63
2023-05-02T13:26:36.344Z,101336.97
2023-05-02T13:28:39.333Z,101336.66
2023-05-02T13:30:43.038Z,101326.47
2023-05-02T13:32:46.265Z,101335.53
2023-05-02T13:34:50.711Z,101329.63
2023-05-02T13:36:53.688Z,101330.66
2023-05-02T13:38:57.744Z,101332.53
2023-05-02T13:41:02.397Z,101331.97
2023-05-02T13:43:05.300Z,101327.97
2023-05-02T13:45:09.878Z,101319.94
2023-05-02T13:47:14.022Z,101329.81
2023-05-02T13:49:16.910Z,101322.47
2023-05-02T13:51:21.189Z,101330.28
2023-05-02T13:53:24.325Z,101332.44
2023-05-02T13:55:27.206Z,101332.88
2023-05-02T13:57:30.163Z,101338.56
2023-05-02T13:59:33.937Z,101343.69
2023-05-02T14:01:40.305Z,101343.50
2023-05-02T14:03:43.754Z,101341.56
2023-05-02T14:05:47.667Z,101339.59
2023-05-02T14:07:51.912Z,101340.84
2023-05-02T14:09:54.773Z,101340.72
2023-05-02T14:11:58.758Z,101335.84
2023-05-02T14:14:01.723Z,101334.69
2023-05-02T14:16:05.104Z,101332.66
2023-05-02T14:18:08.225Z,101342.44
2023-05-02T14:20:12.147Z,101334.31
2023-05-02T14:22:15.882Z,101333.53
2023-05-02T14:24:20.378Z,101343.88
2023-05-02T14:26:23.626Z,101331.63
2023-05-02T14:28:27.150Z,101345.91
2023-05-02T14:30:31.088Z,101339.53
2023-05-02T14:32:34.293Z,101344.06
2023-05-02T14:34:37.228Z,101342.19
2023-05-02T14:36:40.120Z,101339.50
2023-05-02T14:38:44.008Z,101342.50
2023-05-02T14:40:48.378Z,101340.91
2023-05-02T14:42:52.313Z,101336.28
2023-05-02T14:44:56.381Z,101350.94
2023-05-02T14:47:01.290Z,101350.59
2023-05-02T14:49:04.195Z,101344.03
2023-05-02T14:51:07.721Z,101346.50
2023-05-02T14:53:11.673Z,101344.72
2023-05-02T14:55:14.841Z,101343.31
2023-05-02T14:57:19.325Z,101337.03
2023-05-02T14:59:22.338Z,101338.94
2023-05-02T15:01:26.112Z,101343.28
2023-05-02T15:03:29.150Z,101347.28
2023-05-02T15:05:32.284Z,101345.00
2023-05-02T15:07:36.090Z,101345.69
2023-05-02T15:09:39.023Z,101340.03
2023-05-02T15:11:44.182Z,101347.09
2023-05-02T15:13:48.542Z,101345.19
2023-05-02T15:15:51.452Z,101344.16
2023-05-02T15:17:54.385Z,101342.06
2023-05-02T15:19:58.497Z,101357.41
2023-05-02T15:22:01.766Z,101353.53
2023-05-02T15:24:05.895Z,101354.72
2023-05-02T15:26:08.790Z,101349.91
2023-05-02T15:28:11.942Z,101345.75
2023-05-02T15:30:18.090Z,101347.97
2023-05-02T15:32:21.693Z,101347.47
2023-05-02T15:34:24.717Z,101352.94
2023-05-02T15:36:28.822Z,101362.47
2023-05-02T15:38:34.630Z,101360.94
2023-05-02T15:40:38.419Z,101366.75
2023-05-02T15:42:41.747Z,101368.94
2023-05-02T15:44:44.704Z,101363.44
2023-05-02T15:46:49.462Z,101365.63
2023-05-02T15:48:53.470Z,101362.88
2023-05-02T15:50:56.919Z,101359.75
2023-05-02T15:52:59.884Z,101362.91
2023-05-02T15:55:02.986Z,101373.69
2023-05-02T15:57:05.953Z,101365.78
2023-05-02T15:59:08.846Z,101357.44
2023-05-02T16:01:11.835Z,101369.16
2023-05-02T16:03:16.426Z,101366.53
2023-05-02T16:05:19.491Z,101370.59
2023-05-02T16:07:22.347Z,101372.41
2023-05-02T16:09:25.305Z,101365.03
2023-05-02T16:11:28.667Z,101366.59
2023-05-02T16:13:32.128Z,101382.97
2023-05-02T16:15:35.001Z,101363.19
2023-05-02T16:17:37.930Z,101376.75
2023-05-02T16:19:42.316Z,101380.88
2023-05-02T16:21:45.309Z,101376.38
2023-05-02T16:23:48.207Z,101382.44
2023-05-02T16:25:51.090Z,101370.72
2023-05-02T16:27:54.908Z,101383.09
2023-05-02T16:29:58.136Z,101382.16
2023-05-02T16:32:01.267Z,101386.75
2023-05-02T16:34:04.733Z,101387.63
2023-05-02T16:36:09.663Z,101391.00
2023-05-02T16:38:14.191Z,101382.69
2023-05-02T16:40:18.669Z,101385.63
2023-05-02T16:42:22.179Z,101383.44
2023-05-02T16:44:25.180Z,101391.22
2023-05-02T16:46:30.189Z,101384.72
2023-05-02T16:48:33.465Z,101388.81
2023-05-02T16:50:37.039Z,101389.78
2023-05-02T16:52:41.358Z,101388.03
2023-05-02T16:54:44.336Z,101388.56
2023-05-02T16:56:47.508Z,101387.38
2023-05-02T16:58:50.390Z,101395.22
2023-05-02T17:00:53.773Z,101391.88
2023-05-02T17:02:57.195Z,101393.47
2023-05-02T17:05:00.400Z,101393.38
2023-05-02T17:07:03.447Z,101399.72
2023-05-02T17:09:07.788Z,101397.00
2023-05-02T17:11:10.818Z,101394.72
2023-05-02T17:13:13.761Z,101397.19
2023-05-02T17:15:16.830Z,101409.00
2023-05-02T17:17:22.755Z,101409.06
2023-05-02T17:19:26.782Z,101409.94
2023-05-02T17:21:29.753Z,101409.19
2023-05-02T17:23:32.673Z,101406.47
2023-05-02T17:25:38.200Z,101400.34
2023-05-02T17:27:41.399Z,101396.94
2023-05-02T17:29:44.308Z,101390.75
2023-05-02T17:31:47.283Z,101395.03
2023-05-02T17:33:50.385Z,101398.50
2023-05-02T17:35:54.238Z,101401.22
2023-05-02T17:37:57.309Z,101396.44
2023-05-02T17:40:01.266Z,101403.59
2023-05-02T17:42:05.982Z,101404.94
2023-05-02T17:44:08.946Z,101401.03
2023-05-02T17:46:12.081Z,101408.06
2023-05-02T17:48:15.188Z,101394.72
2023-05-02T17:50:18.482Z,101404.53
2023-05-02T17:52:21.496Z,101408.53
2023-05-02T17:54:24.649Z,101403.81
2023-05-02T17:56:28.388Z,101405.38
2023-05-02T17:58:35.343Z,101410.31
2023-05-02T18:00:38.334Z,101415.06
2023-05-02T18:02:41.326Z,101420.50
2023-05-02T18:04:45.650Z,101417.03
2023-05-02T18:06:48.983Z,101412.00
2023-05-02T18:08:52.027Z,101410.19
2023-05-02T18:10:54.985Z,101413.97
2023-05-02T18:12:57.994Z,101422.59
2023-05-02T18:15:05.861Z,101427.09
2023-05-02T18:17:09.969Z,101435.25
2023-05-02T18:19:13.453Z,101429.03
2023-05-02T18:21:22.815Z,101428.53
2023-05-02T18:23:26.385Z,101437.25
2023-05-02T18:25:30.230Z,101423.94
2023-05-02T18:27:33.504Z,101430.88
2023-05-02T18:29:36.534Z,101434.47
2023-05-02T18:31:41.259Z,101438.25
2023-05-02T18:33:44.233Z,101446.31
2023-05-02T18:35:49.332Z,101437.59
2023-05-02T18:37:52.860Z,101441.22
2023-05-02T18:39:58.040Z,101439.56
2023-05-02T18:42:02.995Z,101439.94
2023-05-02T18:44:08.013Z,101435.44
2023-05-02T18:46:12.035Z,101437.81
2023-05-02T18:48:16.478Z,101446.97
2023-05-02T18:50:19.676Z,101449.78
2023-05-02T18:52:22.959Z,101442.97
2023-05-02T18:54:27.812Z,101444.91
2023-05-02T18:56:31.190Z,101450.22
2023-05-02T18:58:34.108Z,101453.34
2023-05-02T19:00:37.615Z,101453.44
2023-05-02T19:02:43.471Z,101457.84
2023-05-02T19:04:48.254Z,101467.63
2023-05-02T19:06:51.445Z,101466.00
2023-05-02T19:08:54.426Z,101467.88
2023-05-02T19:10:57.683Z,101466.47
2023-05-02T19:13:00.617Z,101473.66
2023-05-02T19:15:05.071Z,101479.91
2023-05-02T19:17:08.191Z,101477.50
2023-05-02T19:19:11.151Z,101483.94
2023-05-02T19:21:16.996Z,101493.53
2023-05-02T19:23:20.909Z,101493.94
2023-05-02T19:25:24.158Z,101491.84
2023-05-02T19:27:27.488Z,101490.16
2023-05-02T19:29:30.532Z,101488.19
2023-05-02T19:31:37.298Z,101490.66
2023-05-02T19:33:43.683Z,101487.84
2023-05-02T19:35:47.967Z,101487.63
2023-05-02T19:37:52.688Z,101488.13
2023-05-02T19:39:55.995Z,101496.94
2023-05-02T19:41:59.130Z,101491.31
2023-05-02T19:44:02.113Z,101503.69
2023-05-02T19:46:05.411Z,101505.72
2023-05-02T19:48:08.461Z,101510.94
2023-05-02T19:50:12.271Z,101512.78
2023-05-02T19:52:15.220Z,101515.34
2023-05-02T19:54:19.857Z,101521.59
2023-05-02T19:56:25.435Z,101526.94
2023-05-02T19:58:28.683Z,101526.25
2023-05-02T20:00:31.771Z,101535.25
2023-05-02T20:02:35.619Z,101531.91
2023-05-02T20:04:38.677Z,101534.59
2023-05-02T20:06:41.798Z,101529.47
2023-05-02T20:08:44.793Z,101529.72
2023-05-02T20:10:49.090Z,101533.28
2023-05-02T20:12:52.036Z,101529.06
2023-05-02T20:14:55.011Z,101528.13
2023-05-02T20:17:01.751Z,101526.47
2023-05-02T20:19:05.368Z,101536.09
2023-05-02T20:21:08.272Z,101537.09
2023-05-02T20:23:11.204Z,101540.75
2023-05-02T20:25:15.076Z,101538.03
2023-05-02T20:27:19.419Z,101542.69
2023-05-02T20:29:22.344Z,101549.63
2023-05-02T20:31:25.289Z,101546.22
2023-05-02T20:33:41.213Z,101550.75
2023-05-02T20:35:55.104Z,101546.47
2023-05-02T20:37:58.041Z,101544.78
2023-05-02T20:40:02.293Z,101544.91
2023-05-02T20:42:05.571Z,101547.53
2023-05-02T20:44:09.927Z,101556.31
2023-05-02T20:46:17.268Z,101561.72
2023-05-02T20:48:20.194Z,101555.59
2023-05-02T20:50:23.431Z,101557.59
2023-05-02T20:52:26.602Z,101554.03
2023-05-02T20:54:29.595Z,101559.25
2023-05-02T20:56:32.560Z,101557.63
2023-05-02T20:58:35.440Z,101565.59
2023-05-02T21:00:40.778Z,101558.06
2023-05-02T21:02:43.832Z,101559.97
2023-05-02T21:04:46.764Z,101562.63
2023-05-02T21:06:49.679Z,101568.03
2023-05-02T21:08:55.096Z,101570.69
2023-05-02T21:10:58.138Z,101570.69
2023-05-02T21:13:00.978Z,101573.50
2023-05-02T21:15:03.995Z,101568.31
2023-05-02T21:17:08.242Z,101567.47
2023-05-02T21:19:11.160Z,101570.94
2023-05-02T21:21:15.497Z,101572.69
2023-05-02T21:23:18.603Z,101577.94
2023-05-02T21:25:21.522Z,101573.63
2023-05-02T21:27:24.487Z,101570.13
2023-05-02T21:29:27.440Z,101574.69
2023-05-02T21:31:30.572Z,101575.69
2023-05-02T21:33:34.864Z,101572.31
2023-05-02T21:35:38.044Z,101574.13
2023-05-02T21:37:40.887Z,101574.19
2023-05-02T21:39:43.784Z,101571.59
2023-05-02T21:41:46.636Z,101571.59
2023-05-02T21:43:49.798Z,101576.84
2023-05-02T21:45:52.642Z,101575.06
2023-05-02T21:47:55.646Z,101577.84
2023-05-02T21:50:00.180Z,101575.28
2023-05-02T21:52:03.540Z,101579.63
2023-05-02T21:54:07.419Z,101582.25
2023-05-02T21:56:11.180Z,101587.56
2023-05-02T21:58:14.095Z,101585.88
2023-05-02T22:00:17.560Z,101589.47
2023-05-02T22:02:20.447Z,101579.00
2023-05-02T22:04:24.897Z,101581.63
2023-05-02T22:06:29.528Z,101585.28
2023-05-02T22:08:32.972Z,101588.69
2023-05-02T22:10:36.794Z,101587.81
2023-05-02T22:12:39.741Z,101600.94
2023-05-02T22:14:45.798Z,101594.88
2023-05-02T22:16:48.946Z,101594.88
2023-05-02T22:18:51.846Z,101595.78
2023-05-02T22:20:57.211Z,101594.09
2023-05-02T22:23:01.579Z,101588.03
2023-05-02T22:25:04.825Z,101588.16
2023-05-02T22:27:07.933Z,101595.19
2023-05-02T22:29:10.845Z,101593.53
2023-05-02T22:31:14.154Z,101595.22
2023-05-02T22:33:17.056Z,101601.34
2023-05-02T22:35:19.958Z,101607.50
2023-05-02T22:37:22.816Z,101605.69
2023-05-02T22:39:27.742Z,101603.13
2023-05-02T22:41:32.084Z,101600.53
2023-05-02T22:43:34.877Z,101608.44
2023-05-02T22:45:39.506Z,101609.31
2023-05-02T22:47:42.401Z,101607.59
2023-05-02T22:49:46.150Z,101607.59
2023-05-02T22:51:49.171Z,101607.63
2023-05-02T22:53:54.085Z,101607.69
2023-05-02T22:55:58.338Z,101607.69
2023-05-02T22:58:01.350Z,101612.97
2023-05-02T23:00:09.280Z,101609.47
2023-05-02T23:02:12.518Z,101608.63
2023-05-02T23:04:15.455Z,101611.28
2023-05-02T23:06:19.016Z,101601.72
2023-05-02T23:08:22.063Z,101602.66
2023-05-02T23:10:24.922Z,101603.53
2023-05-02T23:12:29.324Z,101601.75
2023-05-02T23:14:32.452Z,101605.25
2023-05-02T23:16:35.387Z,101600.03
2023-05-02T23:18:38.316Z,101604.38
2023-05-02T23:20:41.222Z,101602.66
2023-05-02T23:22:46.359Z,101602.69
2023-05-02T23:24:49.320Z,101604.44
2023-05-02T23:26:52.448Z,101607.94
2023-05-02T23:28:59.012Z,101604.47
2023-05-02T23:31:02.282Z,101610.59
2023-05-02T23:33:05.511Z,101603.59
2023-05-02T23:35:09.398Z,101604.53
2023-05-02T23:37:12.880Z,101607.13
2023-05-02T23:39:16.271Z,101604.53
2023-05-02T23:41:19.157Z,101607.19
2023-05-02T23:43:22.146Z,101603.72
2023-05-02T23:45:26.699Z,101608.09